sensor_id;sensor_type;location;lat;lon;timestamp;temperature;humidity
17425;DHT22;8830;50.978;5.058;2023-04-15T00:01:16;8.80;99.90
17425;DHT22;8830;50.978;5.058;2023-04-15T00:03:44;9.00;99.90
17425;DHT22;8830;50.978;5.058;2023-04-15T00:06:11;9.00;99.90
17425;DHT22;8830;50.978;5.058;2023-04-15T00:08:39;9.00;99.90
17425;DHT22;8830;50.978;5.058;2023-04-15T00:11:06;9.10;99.90
17425;DHT22;8830;50.978;5.058;2023-04-15T00:13:33;9.10;99.90
17425;DHT22;8830;50.978;5.058;2023-04-15T00:16:02;9.10;99.90
17425;DHT22;8830;50.978;5.058;2023-04-15T00:18:30;10.30;99.90
17425;DHT22;8830;50.978;5.058;2023-04-15T00:20:57;9.10;99.90
17425;DHT22;8830;50.978;5.058;2023-04-15T00:23:24;9.00;99.90
17425;DHT22;8830;50.978;5.058;2023-04-15T00:25:51;8.90;99.90
17425;DHT22;8830;50.978;5.058;2023-04-15T00:28:18;8.90;99.90
17425;DHT22;8830;50.978;5.058;2023-04-15T00:30:46;8.90;99.90
17425;DHT22;8830;50.978;5.058;2023-04-15T00:33:14;8.90;99.90
17425;DHT22;8830;50.978;5.058;2023-04-15T00:35:42;7.60;99.90
17425;DHT22;8830;50.978;5.058;2023-04-15T00:38:09;9.10;99.90
17425;DHT22;8830;50.978;5.058;2023-04-15T00:40:37;9.20;99.90
17425;DHT22;8830;50.978;5.058;2023-04-15T00:43:05;9.30;99.90
17425;DHT22;8830;50.978;5.058;2023-04-15T00:45:32;11.00;99.90
17425;DHT22;8830;50.978;5.058;2023-04-15T00:47:59;9.30;99.90
17425;DHT22;8830;50.978;5.058;2023-04-15T00:50:32;9.30;99.90
17425;DHT22;8830;50.978;5.058;2023-04-15T00:52:59;9.10;99.90
17425;DHT22;8830;50.978;5.058;2023-04-15T00:55:26;9.10;99.90
17425;DHT22;8830;50.978;5.058;2023-04-15T00:57:53;9.10;99.90
17425;DHT22;8830;50.978;5.058;2023-04-15T01:00:21;8.70;99.90
17425;DHT22;8830;50.978;5.058;2023-04-15T01:02:48;9.10;99.90
17425;DHT22;8830;50.978;5.058;2023-04-15T01:05:17;9.10;99.90
17425;DHT22;8830;50.978;5.058;2023-04-15T01:07:46;9.10;99.90
17425;DHT22;8830;50.978;5.058;2023-04-15T01:10:14;9.40;99.90
17425;DHT22;8830;50.978;5.058;2023-04-15T01:12:41;9.20;99.90
17425;DHT22;8830;50.978;5.058;2023-04-15T01:15:09;9.20;99.90
17425;DHT22;8830;50.978;5.058;2023-04-15T01:17:37;9.20;99.90
17425;DHT22;8830;50.978;5.058;2023-04-15T01:20:05;9.20;99.90
17425;DHT22;8830;50.978;5.058;2023-04-15T01:22:35;9.20;99.90
17425;DHT22;8830;50.978;5.058;2023-04-15T01:25:09;9.20;99.90
17425;DHT22;8830;50.978;5.058;2023-04-15T01:27:40;9.20;99.90
17425;DHT22;8830;50.978;5.058;2023-04-15T01:30:08;10.50;99.90
17425;DHT22;8830;50.978;5.058;2023-04-15T01:32:37;9.30;99.90
17425;DHT22;8830;50.978;5.058;2023-04-15T01:35:05;9.30;99.90
17425;DHT22;8830;50.978;5.058;2023-04-15T01:37:33;9.20;99.90
17425;DHT22;8830;50.978;5.058;2023-04-15T01:40:00;9.20;99.90
17425;DHT22;8830;50.978;5.058;2023-04-15T01:42:28;9.20;99.90
17425;DHT22;8830;50.978;5.058;2023-04-15T01:44:56;9.20;99.90
17425;DHT22;8830;50.978;5.058;2023-04-15T01:47:25;9.40;99.90
17425;DHT22;8830;50.978;5.058;2023-04-15T01:49:53;9.20;99.90
17425;DHT22;8830;50.978;5.058;2023-04-15T01:52:20;9.60;99.90
17425;DHT22;8830;50.978;5.058;2023-04-15T01:54:48;9.10;99.90
17425;DHT22;8830;50.978;5.058;2023-04-15T01:57:15;9.10;99.90
17425;DHT22;8830;50.978;5.058;2023-04-15T01:59:43;9.20;99.90
17425;DHT22;8830;50.978;5.058;2023-04-15T02:02:11;9.20;99.90
17425;DHT22;8830;50.978;5.058;2023-04-15T02:04:39;9.20;99.90
17425;DHT22;8830;50.978;5.058;2023-04-15T02:07:06;9.10;99.90
17425;DHT22;8830;50.978;5.058;2023-04-15T02:09:33;9.40;99.90
17425;DHT22;8830;50.978;5.058;2023-04-15T02:12:00;9.40;99.90
17425;DHT22;8830;50.978;5.058;2023-04-15T02:14:28;9.40;99.90
17425;DHT22;8830;50.978;5.058;2023-04-15T02:16:55;11.10;99.90
17425;DHT22;8830;50.978;5.058;2023-04-15T02:19:24;9.40;99.90
17425;DHT22;8830;50.978;5.058;2023-04-15T02:21:52;9.30;99.90
17425;DHT22;8830;50.978;5.058;2023-04-15T02:24:19;9.30;99.90
17425;DHT22;8830;50.978;5.058;2023-04-15T02:26:47;9.20;99.90
17425;DHT22;8830;50.978;5.058;2023-04-15T02:29:16;9.20;99.90
17425;DHT22;8830;50.978;5.058;2023-04-15T02:31:43;9.20;99.90
17425;DHT22;8830;50.978;5.058;2023-04-15T02:34:11;9.30;99.90
17425;DHT22;8830;50.978;5.058;2023-04-15T02:36:40;9.30;99.90
17425;DHT22;8830;50.978;5.058;2023-04-15T02:39:07;9.30;99.90
17425;DHT22;8830;50.978;5.058;2023-04-15T02:41:36;9.30;99.90
17425;DHT22;8830;50.978;5.058;2023-04-15T02:44:04;9.40;99.90
17425;DHT22;8830;50.978;5.058;2023-04-15T02:46:31;9.40;99.90
17425;DHT22;8830;50.978;5.058;2023-04-15T02:49:00;9.40;99.90
17425;DHT22;8830;50.978;5.058;2023-04-15T02:51:29;9.40;99.90
17425;DHT22;8830;50.978;5.058;2023-04-15T02:53:59;9.50;99.90
17425;DHT22;8830;50.978;5.058;2023-04-15T02:56:26;9.50;99.90
17425;DHT22;8830;50.978;5.058;2023-04-15T02:58:53;9.50;99.90
17425;DHT22;8830;50.978;5.058;2023-04-15T03:01:21;9.50;99.90
17425;DHT22;8830;50.978;5.058;2023-04-15T03:03:48;9.40;99.90
17425;DHT22;8830;50.978;5.058;2023-04-15T03:06:15;9.40;99.90
17425;DHT22;8830;50.978;5.058;2023-04-15T03:08:42;9.40;99.90
17425;DHT22;8830;50.978;5.058;2023-04-15T03:11:11;9.40;99.90
17425;DHT22;8830;50.978;5.058;2023-04-15T03:13:40;9.40;99.90
17425;DHT22;8830;50.978;5.058;2023-04-15T03:16:09;9.40;99.90
17425;DHT22;8830;50.978;5.058;2023-04-15T03:18:36;9.30;99.90
17425;DHT22;8830;50.978;5.058;2023-04-15T03:21:03;9.40;99.90
17425;DHT22;8830;50.978;5.058;2023-04-15T03:23:31;9.40;99.90
17425;DHT22;8830;50.978;5.058;2023-04-15T03:26:01;9.40;99.90
17425;DHT22;8830;50.978;5.058;2023-04-15T03:28:29;9.40;99.90
17425;DHT22;8830;50.978;5.058;2023-04-15T03:30:57;9.40;99.90
17425;DHT22;8830;50.978;5.058;2023-04-15T03:33:25;9.40;99.90
17425;DHT22;8830;50.978;5.058;2023-04-15T03:35:52;9.40;99.90
17425;DHT22;8830;50.978;5.058;2023-04-15T03:38:19;9.40;99.90
17425;DHT22;8830;50.978;5.058;2023-04-15T03:40:47;9.40;99.90
17425;DHT22;8830;50.978;5.058;2023-04-15T03:43:14;9.40;99.90
17425;DHT22;8830;50.978;5.058;2023-04-15T03:45:42;9.50;99.90
17425;DHT22;8830;50.978;5.058;2023-04-15T03:48:10;9.50;99.90
17425;DHT22;8830;50.978;5.058;2023-04-15T03:50:37;9.50;99.90
17425;DHT22;8830;50.978;5.058;2023-04-15T03:53:04;9.50;99.90
17425;DHT22;8830;50.978;5.058;2023-04-15T03:55:31;9.50;99.90
17425;DHT22;8830;50.978;5.058;2023-04-15T03:57:58;9.50;99.90
17425;DHT22;8830;50.978;5.058;2023-04-15T04:00:26;9.50;99.90
17425;DHT22;8830;50.978;5.058;2023-04-15T04:02:54;9.40;99.90
17425;DHT22;8830;50.978;5.058;2023-04-15T04:05:21;9.40;99.90
17425;DHT22;8830;50.978;5.058;2023-04-15T04:07:48;9.40;99.90
17425;DHT22;8830;50.978;5.058;2023-04-15T04:10:16;9.40;99.90
17425;DHT22;8830;50.978;5.058;2023-04-15T04:12:43;9.40;99.90
17425;DHT22;8830;50.978;5.058;2023-04-15T04:15:10;9.50;99.90
17425;DHT22;8830;50.978;5.058;2023-04-15T04:17:37;9.50;99.90
17425;DHT22;8830;50.978;5.058;2023-04-15T04:20:07;9.40;99.90
17425;DHT22;8830;50.978;5.058;2023-04-15T04:22:37;9.50;99.90
17425;DHT22;8830;50.978;5.058;2023-04-15T04:25:05;9.60;99.90
17425;DHT22;8830;50.978;5.058;2023-04-15T04:27:33;9.50;99.90
17425;DHT22;8830;50.978;5.058;2023-04-15T04:30:00;10.10;99.90
17425;DHT22;8830;50.978;5.058;2023-04-15T04:32:27;9.60;99.90
17425;DHT22;8830;50.978;5.058;2023-04-15T04:34:54;9.40;99.90
17425;DHT22;8830;50.978;5.058;2023-04-15T04:37:22;9.40;99.90
17425;DHT22;8830;50.978;5.058;2023-04-15T04:39:51;9.10;99.90
17425;DHT22;8830;50.978;5.058;2023-04-15T04:42:19;9.30;99.90
17425;DHT22;8830;50.978;5.058;2023-04-15T04:44:49;9.30;99.90
17425;DHT22;8830;50.978;5.058;2023-04-15T04:47:24;9.20;99.90
17425;DHT22;8830;50.978;5.058;2023-04-15T04:49:51;9.20;99.90
17425;DHT22;8830;50.978;5.058;2023-04-15T04:56:04;9.30;99.90
17425;DHT22;8830;50.978;5.058;2023-04-15T07:10:39;14.30;99.90
17425;DHT22;8830;50.978;5.058;2023-04-15T07:13:33;14.60;99.90
17425;DHT22;8830;50.978;5.058;2023-04-15T09:29:03;16.00;99.90
17425;DHT22;8830;50.978;5.058;2023-04-15T09:31:44;16.10;99.90
17425;DHT22;8830;50.978;5.058;2023-04-15T09:34:13;16.00;99.90
17425;DHT22;8830;50.978;5.058;2023-04-15T09:40:12;15.70;99.90
17425;DHT22;8830;50.978;5.058;2023-04-15T09:42:53;15.70;99.90
17425;DHT22;8830;50.978;5.058;2023-04-15T09:46:02;15.60;99.90
17425;DHT22;8830;50.978;5.058;2023-04-15T09:48:41;15.70;99.90
17425;DHT22;8830;50.978;5.058;2023-04-15T09:51:18;15.70;99.90
17425;DHT22;8830;50.978;5.058;2023-04-15T09:54:45;15.70;99.90
17425;DHT22;8830;50.978;5.058;2023-04-15T10:04:28;15.50;99.90
17425;DHT22;8830;50.978;5.058;2023-04-15T10:20:07;15.70;99.90
17425;DHT22;8830;50.978;5.058;2023-04-15T10:23:04;15.50;99.90
17425;DHT22;8830;50.978;5.058;2023-04-15T10:32:40;15.60;99.90
17425;DHT22;8830;50.978;5.058;2023-04-15T10:42:16;15.80;99.90
17425;DHT22;8830;50.978;5.058;2023-04-15T10:44:48;16.00;99.90
17425;DHT22;8830;50.978;5.058;2023-04-15T10:47:30;16.00;99.90
17425;DHT22;8830;50.978;5.058;2023-04-15T10:50:15;16.30;99.90
17425;DHT22;8830;50.978;5.058;2023-04-15T10:52:51;16.10;99.90
17425;DHT22;8830;50.978;5.058;2023-04-15T10:55:32;15.90;99.90
17425;DHT22;8830;50.978;5.058;2023-04-15T10:58:15;15.90;99.90
17425;DHT22;8830;50.978;5.058;2023-04-15T11:00:54;16.00;99.90
17425;DHT22;8830;50.978;5.058;2023-04-15T11:03:56;16.30;99.90
17425;DHT22;8830;50.978;5.058;2023-04-15T11:06:46;16.30;99.90
17425;DHT22;8830;50.978;5.058;2023-04-15T11:09:54;16.10;99.90
17425;DHT22;8830;50.978;5.058;2023-04-15T11:12:35;16.10;99.90
17425;DHT22;8830;50.978;5.058;2023-04-15T11:15:43;16.30;99.90
17425;DHT22;8830;50.978;5.058;2023-04-15T11:21:30;17.10;99.90
17425;DHT22;8830;50.978;5.058;2023-04-15T11:24:01;16.20;99.90
17425;DHT22;8830;50.978;5.058;2023-04-15T11:26:30;16.20;99.90
17425;DHT22;8830;50.978;5.058;2023-04-15T11:29:16;16.20;99.90
17425;DHT22;8830;50.978;5.058;2023-04-15T11:32:00;16.10;99.90
17425;DHT22;8830;50.978;5.058;2023-04-15T11:34:31;16.20;99.90
17425;DHT22;8830;50.978;5.058;2023-04-15T11:37:26;16.00;99.90
17425;DHT22;8830;50.978;5.058;2023-04-15T11:43:40;15.80;99.90
17425;DHT22;8830;50.978;5.058;2023-04-15T11:46:17;15.50;99.90
17425;DHT22;8830;50.978;5.058;2023-04-15T11:52:35;15.70;99.90
17425;DHT22;8830;50.978;5.058;2023-04-15T11:55:03;15.60;99.90
17425;DHT22;8830;50.978;5.058;2023-04-15T11:57:33;15.60;99.90
17425;DHT22;8830;50.978;5.058;2023-04-15T12:00:36;15.60;99.90
17425;DHT22;8830;50.978;5.058;2023-04-15T12:03:15;15.90;99.90
17425;DHT22;8830;50.978;5.058;2023-04-15T12:09:08;15.90;99.90
17425;DHT22;8830;50.978;5.058;2023-04-15T12:12:06;15.80;99.90
17425;DHT22;8830;50.978;5.058;2023-04-15T12:14:40;16.00;99.90
17425;DHT22;8830;50.978;5.058;2023-04-15T12:17:10;16.10;99.90
17425;DHT22;8830;50.978;5.058;2023-04-15T12:20:02;16.00;99.90
17425;DHT22;8830;50.978;5.058;2023-04-15T12:22:47;16.10;99.90
17425;DHT22;8830;50.978;5.058;2023-04-15T12:25:35;16.40;99.90
17425;DHT22;8830;50.978;5.058;2023-04-15T12:28:29;16.00;99.90
17425;DHT22;8830;50.978;5.058;2023-04-15T12:31:06;16.00;99.90
17425;DHT22;8830;50.978;5.058;2023-04-15T12:33:37;16.00;99.90
17425;DHT22;8830;50.978;5.058;2023-04-15T12:36:05;16.00;99.90
17425;DHT22;8830;50.978;5.058;2023-04-15T12:38:48;16.10;99.90
17425;DHT22;8830;50.978;5.058;2023-04-15T12:41:23;16.00;99.90
17425;DHT22;8830;50.978;5.058;2023-04-15T12:43:54;15.90;99.90
17425;DHT22;8830;50.978;5.058;2023-04-15T12:46:23;16.10;99.90
17425;DHT22;8830;50.978;5.058;2023-04-15T12:48:50;16.10;99.90
17425;DHT22;8830;50.978;5.058;2023-04-15T12:51:22;15.90;99.90
17425;DHT22;8830;50.978;5.058;2023-04-15T12:53:57;15.80;99.90
17425;DHT22;8830;50.978;5.058;2023-04-15T12:56:27;15.70;99.90
17425;DHT22;8830;50.978;5.058;2023-04-15T12:59:01;15.80;99.90
17425;DHT22;8830;50.978;5.058;2023-04-15T13:01:44;15.00;99.90
17425;DHT22;8830;50.978;5.058;2023-04-15T13:04:14;15.80;99.90
17425;DHT22;8830;50.978;5.058;2023-04-15T13:06:43;15.90;99.90
17425;DHT22;8830;50.978;5.058;2023-04-15T13:09:11;15.80;99.90
17425;DHT22;8830;50.978;5.058;2023-04-15T13:11:42;15.90;99.90
17425;DHT22;8830;50.978;5.058;2023-04-15T13:14:10;16.10;99.90
17425;DHT22;8830;50.978;5.058;2023-04-15T13:16:43;16.30;99.90
17425;DHT22;8830;50.978;5.058;2023-04-15T13:19:15;16.20;99.90
17425;DHT22;8830;50.978;5.058;2023-04-15T13:21:44;15.80;99.90
17425;DHT22;8830;50.978;5.058;2023-04-15T13:27:20;15.90;99.90
17425;DHT22;8830;50.978;5.058;2023-04-15T13:29:54;16.00;99.90
17425;DHT22;8830;50.978;5.058;2023-04-15T13:35:49;15.80;99.90
17425;DHT22;8830;50.978;5.058;2023-04-15T13:38:17;16.00;99.90
17425;DHT22;8830;50.978;5.058;2023-04-15T13:40:46;16.00;99.90
17425;DHT22;8830;50.978;5.058;2023-04-15T13:43:28;16.00;99.90
17425;DHT22;8830;50.978;5.058;2023-04-15T13:46:00;16.00;99.90
17425;DHT22;8830;50.978;5.058;2023-04-15T13:48:28;16.20;99.90
17425;DHT22;8830;50.978;5.058;2023-04-15T13:51:01;16.20;99.90
17425;DHT22;8830;50.978;5.058;2023-04-15T13:57:09;16.10;99.90
17425;DHT22;8830;50.978;5.058;2023-04-15T13:59:40;16.00;99.90
17425;DHT22;8830;50.978;5.058;2023-04-15T14:02:19;16.00;99.90
17425;DHT22;8830;50.978;5.058;2023-04-15T14:04:54;16.20;99.90
17425;DHT22;8830;50.978;5.058;2023-04-15T14:07:24;16.10;99.90
17425;DHT22;8830;50.978;5.058;2023-04-15T14:09:54;16.10;99.90
17425;DHT22;8830;50.978;5.058;2023-04-15T14:12:25;14.80;99.90
17425;DHT22;8830;50.978;5.058;2023-04-15T14:15:25;16.30;99.90
17425;DHT22;8830;50.978;5.058;2023-04-15T14:18:09;15.90;99.90
17425;DHT22;8830;50.978;5.058;2023-04-15T14:20:54;16.10;99.90
17425;DHT22;8830;50.978;5.058;2023-04-15T14:23:30;16.10;99.90
17425;DHT22;8830;50.978;5.058;2023-04-15T14:25:58;16.00;99.90
17425;DHT22;8830;50.978;5.058;2023-04-15T14:28:28;15.90;99.90
17425;DHT22;8830;50.978;5.058;2023-04-15T14:31:06;16.00;99.90
17425;DHT22;8830;50.978;5.058;2023-04-15T14:33:47;15.90;99.90
17425;DHT22;8830;50.978;5.058;2023-04-15T14:36:16;15.70;99.90
17425;DHT22;8830;50.978;5.058;2023-04-15T14:38:45;15.60;99.90
17425;DHT22;8830;50.978;5.058;2023-04-15T14:41:15;15.50;99.90
17425;DHT22;8830;50.978;5.058;2023-04-15T14:43:52;15.40;99.90
17425;DHT22;8830;50.978;5.058;2023-04-15T14:46:21;15.30;99.90
17425;DHT22;8830;50.978;5.058;2023-04-15T14:48:51;15.40;99.90
17425;DHT22;8830;50.978;5.058;2023-04-15T14:51:27;15.40;99.90
17425;DHT22;8830;50.978;5.058;2023-04-15T14:53:56;15.50;99.90
17425;DHT22;8830;50.978;5.058;2023-04-15T15:00:16;15.10;99.90
17425;DHT22;8830;50.978;5.058;2023-04-15T15:02:46;15.50;99.90
17425;DHT22;8830;50.978;5.058;2023-04-15T15:12:27;15.10;99.90
17425;DHT22;8830;50.978;5.058;2023-04-15T15:18:35;15.60;99.90
17425;DHT22;8830;50.978;5.058;2023-04-15T15:21:04;12.50;99.90
17425;DHT22;8830;50.978;5.058;2023-04-15T15:23:33;16.00;99.90
17425;DHT22;8830;50.978;5.058;2023-04-15T15:26:02;16.00;99.90
17425;DHT22;8830;50.978;5.058;2023-04-15T15:28:44;16.10;99.90
17425;DHT22;8830;50.978;5.058;2023-04-15T15:31:13;15.70;99.90
17425;DHT22;8830;50.978;5.058;2023-04-15T15:33:53;15.70;99.90
17425;DHT22;8830;50.978;5.058;2023-04-15T15:40:18;15.30;99.90
17425;DHT22;8830;50.978;5.058;2023-04-15T15:42:46;15.30;99.90
17425;DHT22;8830;50.978;5.058;2023-04-15T15:45:17;15.30;99.90
17425;DHT22;8830;50.978;5.058;2023-04-15T15:47:45;15.50;99.90
17425;DHT22;8830;50.978;5.058;2023-04-15T15:50:29;15.50;99.90
17425;DHT22;8830;50.978;5.058;2023-04-15T15:52:57;15.60;99.90
17425;DHT22;8830;50.978;5.058;2023-04-15T15:55:46;15.60;99.90
17425;DHT22;8830;50.978;5.058;2023-04-15T15:58:16;15.60;99.90
17425;DHT22;8830;50.978;5.058;2023-04-15T16:00:46;15.60;99.90
17425;DHT22;8830;50.978;5.058;2023-04-15T16:03:31;15.70;99.90
17425;DHT22;8830;50.978;5.058;2023-04-15T16:06:21;15.60;99.90
17425;DHT22;8830;50.978;5.058;2023-04-15T16:08:50;15.40;99.90
17425;DHT22;8830;50.978;5.058;2023-04-15T16:11:18;15.40;99.90
17425;DHT22;8830;50.978;5.058;2023-04-15T16:13:47;15.30;99.90
17425;DHT22;8830;50.978;5.058;2023-04-15T16:16:16;15.30;99.90
17425;DHT22;8830;50.978;5.058;2023-04-15T16:18:45;15.10;99.90
17425;DHT22;8830;50.978;5.058;2023-04-15T16:21:14;15.10;99.90
17425;DHT22;8830;50.978;5.058;2023-04-15T16:23:47;15.10;99.90
17425;DHT22;8830;50.978;5.058;2023-04-15T16:26:15;15.00;99.90
17425;DHT22;8830;50.978;5.058;2023-04-15T16:28:46;15.00;99.90
17425;DHT22;8830;50.978;5.058;2023-04-15T16:31:16;15.10;99.90
17425;DHT22;8830;50.978;5.058;2023-04-15T16:33:59;15.00;99.90
17425;DHT22;8830;50.978;5.058;2023-04-15T16:37:14;14.80;99.90
17425;DHT22;8830;50.978;5.058;2023-04-15T17:00:28;14.40;99.90
17425;DHT22;8830;50.978;5.058;2023-04-15T17:13:14;14.00;99.90
17425;DHT22;8830;50.978;5.058;2023-04-15T17:16:03;13.90;99.90
17425;DHT22;8830;50.978;5.058;2023-04-15T18:37:53;11.70;99.90
17425;DHT22;8830;50.978;5.058;2023-04-15T18:40:21;11.70;99.90
17425;DHT22;8830;50.978;5.058;2023-04-15T18:42:48;11.70;99.90
17425;DHT22;8830;50.978;5.058;2023-04-15T18:45:15;11.70;99.90
17425;DHT22;8830;50.978;5.058;2023-04-15T18:47:42;11.60;99.90
17425;DHT22;8830;50.978;5.058;2023-04-15T18:50:10;11.60;99.90
17425;DHT22;8830;50.978;5.058;2023-04-15T18:52:37;11.60;99.90
17425;DHT22;8830;50.978;5.058;2023-04-15T18:55:08;11.50;99.90
17425;DHT22;8830;50.978;5.058;2023-04-15T18:57:37;11.50;99.90
17425;DHT22;8830;50.978;5.058;2023-04-15T19:00:10;11.50;99.90
17425;DHT22;8830;50.978;5.058;2023-04-15T19:02:38;11.40;99.90
17425;DHT22;8830;50.978;5.058;2023-04-15T19:05:06;11.40;99.90
17425;DHT22;8830;50.978;5.058;2023-04-15T19:07:34;11.40;99.90
17425;DHT22;8830;50.978;5.058;2023-04-15T19:10:02;11.40;99.90
17425;DHT22;8830;50.978;5.058;2023-04-15T19:12:30;11.30;99.90
17425;DHT22;8830;50.978;5.058;2023-04-15T19:14:58;11.30;99.90
17425;DHT22;8830;50.978;5.058;2023-04-15T19:17:25;11.30;99.90
17425;DHT22;8830;50.978;5.058;2023-04-15T19:19:52;11.30;99.90
17425;DHT22;8830;50.978;5.058;2023-04-15T19:22:19;11.20;99.90
17425;DHT22;8830;50.978;5.058;2023-04-15T19:24:48;11.30;99.90
17425;DHT22;8830;50.978;5.058;2023-04-15T19:27:16;11.20;99.90
17425;DHT22;8830;50.978;5.058;2023-04-15T19:29:45;11.20;99.90
17425;DHT22;8830;50.978;5.058;2023-04-15T19:32:12;11.10;99.90
17425;DHT22;8830;50.978;5.058;2023-04-15T19:34:39;11.10;99.90
17425;DHT22;8830;50.978;5.058;2023-04-15T19:37:06;11.10;99.90
17425;DHT22;8830;50.978;5.058;2023-04-15T19:39:33;11.00;99.90
17425;DHT22;8830;50.978;5.058;2023-04-15T19:42:01;11.00;99.90
17425;DHT22;8830;50.978;5.058;2023-04-15T19:46:59;10.80;99.90
17425;DHT22;8830;50.978;5.058;2023-04-15T19:49:27;10.80;99.90
17425;DHT22;8830;50.978;5.058;2023-04-15T19:51:54;10.70;99.90
17425;DHT22;8830;50.978;5.058;2023-04-15T19:54:21;10.70;99.90
17425;DHT22;8830;50.978;5.058;2023-04-15T19:56:48;10.70;99.90
17425;DHT22;8830;50.978;5.058;2023-04-15T19:59:16;10.60;99.90
17425;DHT22;8830;50.978;5.058;2023-04-15T20:01:44;10.70;99.90
17425;DHT22;8830;50.978;5.058;2023-04-15T20:04:12;10.70;99.90
17425;DHT22;8830;50.978;5.058;2023-04-15T20:06:39;10.50;99.90
17425;DHT22;8830;50.978;5.058;2023-04-15T20:09:07;10.50;99.90
17425;DHT22;8830;50.978;5.058;2023-04-15T20:11:34;10.30;99.90
17425;DHT22;8830;50.978;5.058;2023-04-15T20:14:01;10.30;99.90
17425;DHT22;8830;50.978;5.058;2023-04-15T20:16:28;10.50;99.90
17425;DHT22;8830;50.978;5.058;2023-04-15T20:18:56;10.40;99.90
17425;DHT22;8830;50.978;5.058;2023-04-15T20:21:26;10.30;99.90
17425;DHT22;8830;50.978;5.058;2023-04-15T20:23:54;10.20;99.90
17425;DHT22;8830;50.978;5.058;2023-04-15T20:26:24;10.20;99.90
17425;DHT22;8830;50.978;5.058;2023-04-15T20:28:52;10.30;99.90
17425;DHT22;8830;50.978;5.058;2023-04-15T20:31:21;10.20;99.90
17425;DHT22;8830;50.978;5.058;2023-04-15T20:33:49;10.20;99.90
17425;DHT22;8830;50.978;5.058;2023-04-15T20:36:16;10.10;99.90
17425;DHT22;8830;50.978;5.058;2023-04-15T20:38:45;10.20;99.90
17425;DHT22;8830;50.978;5.058;2023-04-15T20:41:13;10.10;99.90
17425;DHT22;8830;50.978;5.058;2023-04-15T20:43:40;10.10;99.90
17425;DHT22;8830;50.978;5.058;2023-04-15T20:46:07;10.10;99.90
17425;DHT22;8830;50.978;5.058;2023-04-15T20:48:34;10.10;99.90
17425;DHT22;8830;50.978;5.058;2023-04-15T20:51:01;10.10;99.90
17425;DHT22;8830;50.978;5.058;2023-04-15T20:53:28;10.00;99.90
17425;DHT22;8830;50.978;5.058;2023-04-15T20:55:56;10.00;99.90
17425;DHT22;8830;50.978;5.058;2023-04-15T20:58:24;10.10;99.90
17425;DHT22;8830;50.978;5.058;2023-04-15T21:00:52;10.90;99.90
17425;DHT22;8830;50.978;5.058;2023-04-15T21:03:19;10.20;99.90
17425;DHT22;8830;50.978;5.058;2023-04-15T21:05:46;10.30;99.90
17425;DHT22;8830;50.978;5.058;2023-04-15T21:08:13;10.10;99.90
17425;DHT22;8830;50.978;5.058;2023-04-15T21:10:40;10.10;99.90
17425;DHT22;8830;50.978;5.058;2023-04-15T21:13:08;11.20;99.90
17425;DHT22;8830;50.978;5.058;2023-04-15T21:15:38;10.20;99.90
17425;DHT22;8830;50.978;5.058;2023-04-15T21:18:06;10.10;99.90
17425;DHT22;8830;50.978;5.058;2023-04-15T21:20:33;10.60;99.90
17425;DHT22;8830;50.978;5.058;2023-04-15T21:23:00;10.20;99.90
17425;DHT22;8830;50.978;5.058;2023-04-15T21:25:27;10.10;99.90
17425;DHT22;8830;50.978;5.058;2023-04-15T21:27:54;10.20;99.90
17425;DHT22;8830;50.978;5.058;2023-04-15T21:30:23;10.10;99.90
17425;DHT22;8830;50.978;5.058;2023-04-15T21:32:50;10.10;99.90
17425;DHT22;8830;50.978;5.058;2023-04-15T21:35:17;10.00;99.90
17425;DHT22;8830;50.978;5.058;2023-04-15T21:37:44;10.00;99.90
17425;DHT22;8830;50.978;5.058;2023-04-15T21:40:11;10.00;99.90
17425;DHT22;8830;50.978;5.058;2023-04-15T21:42:40;10.00;99.90
17425;DHT22;8830;50.978;5.058;2023-04-15T21:45:07;10.00;99.90
17425;DHT22;8830;50.978;5.058;2023-04-15T21:47:36;10.10;99.90
17425;DHT22;8830;50.978;5.058;2023-04-15T21:50:03;10.10;99.90
17425;DHT22;8830;50.978;5.058;2023-04-15T21:52:31;10.20;99.90
17425;DHT22;8830;50.978;5.058;2023-04-15T21:54:58;10.10;99.90
17425;DHT22;8830;50.978;5.058;2023-04-15T21:57:25;10.10;99.90
17425;DHT22;8830;50.978;5.058;2023-04-15T21:59:54;10.10;99.90
17425;DHT22;8830;50.978;5.058;2023-04-15T22:02:21;10.00;99.90
17425;DHT22;8830;50.978;5.058;2023-04-15T22:04:49;9.90;99.90
17425;DHT22;8830;50.978;5.058;2023-04-15T22:07:16;10.00;99.90
17425;DHT22;8830;50.978;5.058;2023-04-15T22:09:44;10.00;99.90
17425;DHT22;8830;50.978;5.058;2023-04-15T22:12:11;9.90;99.90
17425;DHT22;8830;50.978;5.058;2023-04-15T22:14:38;9.90;99.90
17425;DHT22;8830;50.978;5.058;2023-04-15T22:17:05;9.90;99.90
17425;DHT22;8830;50.978;5.058;2023-04-15T22:19:32;9.90;99.90
17425;DHT22;8830;50.978;5.058;2023-04-15T22:22:02;9.90;99.90
17425;DHT22;8830;50.978;5.058;2023-04-15T22:24:30;9.90;99.90
17425;DHT22;8830;50.978;5.058;2023-04-15T22:26:57;9.90;99.90
17425;DHT22;8830;50.978;5.058;2023-04-15T22:29:25;9.90;99.90
17425;DHT22;8830;50.978;5.058;2023-04-15T22:31:52;9.90;99.90
17425;DHT22;8830;50.978;5.058;2023-04-15T22:34:19;9.80;99.90
17425;DHT22;8830;50.978;5.058;2023-04-15T22:36:46;9.90;99.90
17425;DHT22;8830;50.978;5.058;2023-04-15T22:39:15;9.70;99.90
17425;DHT22;8830;50.978;5.058;2023-04-15T22:41:43;11.00;99.90
17425;DHT22;8830;50.978;5.058;2023-04-15T22:44:10;9.70;99.90
17425;DHT22;8830;50.978;5.058;2023-04-15T22:46:38;9.70;99.90
17425;DHT22;8830;50.978;5.058;2023-04-15T22:49:06;9.70;99.90
17425;DHT22;8830;50.978;5.058;2023-04-15T22:51:34;9.80;99.90
17425;DHT22;8830;50.978;5.058;2023-04-15T22:54:03;9.80;99.90
17425;DHT22;8830;50.978;5.058;2023-04-15T22:56:31;9.70;99.90
17425;DHT22;8830;50.978;5.058;2023-04-15T22:58:58;9.70;99.90
17425;DHT22;8830;50.978;5.058;2023-04-15T23:01:26;9.70;99.90
17425;DHT22;8830;50.978;5.058;2023-04-15T23:03:53;9.70;99.90
17425;DHT22;8830;50.978;5.058;2023-04-15T23:06:20;9.70;99.90
17425;DHT22;8830;50.978;5.058;2023-04-15T23:08:47;10.20;99.90
17425;DHT22;8830;50.978;5.058;2023-04-15T23:11:15;9.70;99.90
17425;DHT22;8830;50.978;5.058;2023-04-15T23:13:44;9.60;99.90
17425;DHT22;8830;50.978;5.058;2023-04-15T23:16:11;9.60;99.90
17425;DHT22;8830;50.978;5.058;2023-04-15T23:18:38;9.60;99.90
17425;DHT22;8830;50.978;5.058;2023-04-15T23:21:05;9.50;99.90
17425;DHT22;8830;50.978;5.058;2023-04-15T23:23:32;9.50;99.90
17425;DHT22;8830;50.978;5.058;2023-04-15T23:25:59;9.40;99.90
17425;DHT22;8830;50.978;5.058;2023-04-15T23:28:28;9.40;99.90
17425;DHT22;8830;50.978;5.058;2023-04-15T23:30:57;9.50;99.90
17425;DHT22;8830;50.978;5.058;2023-04-15T23:33:24;9.30;99.90
17425;DHT22;8830;50.978;5.058;2023-04-15T23:35:51;9.30;99.90
17425;DHT22;8830;50.978;5.058;2023-04-15T23:38:18;9.40;99.90
17425;DHT22;8830;50.978;5.058;2023-04-15T23:40:47;9.30;99.90
17425;DHT22;8830;50.978;5.058;2023-04-15T23:43:14;9.40;99.90
17425;DHT22;8830;50.978;5.058;2023-04-15T23:45:42;9.30;99.90
17425;DHT22;8830;50.978;5.058;2023-04-15T23:48:10;9.20;99.90
17425;DHT22;8830;50.978;5.058;2023-04-15T23:50:38;9.30;99.90
17425;DHT22;8830;50.978;5.058;2023-04-15T23:53:05;9.20;99.90
17425;DHT22;8830;50.978;5.058;2023-04-15T23:55:34;9.20;99.90
17425;DHT22;8830;50.978;5.058;2023-04-15T23:58:01;9.20;99.90
